Time;durP1;ratioP1;P1;durP2;ratioP2;P2;SDS_P1;SDS_P2;PMS_P1;PMS_P2;Temp;Humidity;BMP_temperature;BMP_pressure;BME280_temperature;BME280_humidity;BME280_pressure;Samples;Min_cycle;Max_cycle;Signal;HPM_P1;HPM_P2
2023/04/27 00:00:10;;;;;;;3.70;2.53;;;4.10;99.90;;;;;;7399505;19;19922;-74
2023/04/27 00:02:41;;;;;;;5.05;2.55;;;4.50;99.90;;;;;;7399127;19;19918;-75
2023/04/27 00:05:12;;;;;;;3.75;1.83;;;4.70;99.90;;;;;;7398751;19;20379;-76
2023/04/27 00:07:41;;;;;;;6.40;2.40;;;4.50;99.90;;;;;;7400527;19;19927;-75
2023/04/27 00:10:11;;;;;;;3.90;2.28;;;4.60;99.90;;;;;;7407805;19;19923;-75
2023/04/27 00:12:41;;;;;;;3.80;2.45;;;3.20;99.90;;;;;;7405011;19;20340;-75
2023/04/27 00:15:11;;;;;;;5.00;2.78;;;3.90;99.90;;;;;;7407729;19;20388;-75
2023/04/27 00:17:43;;;;;;;5.47;2.70;;;4.00;99.90;;;;;;7407423;19;20340;-75
2023/04/27 00:20:13;;;;;;;3.15;2.17;;;3.90;99.90;;;;;;7407232;19;20279;-75
2023/04/27 00:22:42;;;;;;;4.97;2.10;;;4.00;99.90;;;;;;7404805;19;19915;-75
2023/04/27 00:25:11;;;;;;;5.97;2.92;;;3.60;99.90;;;;;;7406018;19;19947;-75
2023/04/27 00:27:40;;;;;;;4.80;2.13;;;3.50;99.90;;;;;;7406000;19;19922;-76
2023/04/27 00:30:11;;;;;;;5.53;2.47;;;3.40;99.90;;;;;;7405272;19;20343;-75
2023/04/27 00:32:43;;;;;;;6.50;2.50;;;3.80;99.90;;;;;;7406997;19;19941;-75
2023/04/27 00:35:13;;;;;;;3.67;2.67;;;4.40;99.90;;;;;;7405085;19;19947;-75
2023/04/27 00:37:41;;;;;;;5.00;2.42;;;3.10;99.90;;;;;;7404902;19;20348;-75
2023/04/27 00:40:11;;;;;;;3.08;2.25;;;2.80;99.90;;;;;;7406257;19;19919;-75
2023/04/27 00:42:40;;;;;;;3.67;2.80;;;3.80;99.90;;;;;;7404338;19;19930;-75
2023/04/27 00:45:12;;;;;;;4.30;2.55;;;4.30;99.90;;;;;;7407057;19;19926;-76
2023/04/27 00:47:44;;;;;;;5.78;2.58;;;3.80;99.90;;;;;;7405676;19;19925;-75
2023/04/27 00:50:13;;;;;;;;;;;3.90;99.90;;;;;;7408279;19;20015;-76
2023/04/27 00:52:42;;;;;;;3.78;2.05;;;4.00;99.90;;;;;;7402564;19;19926;-75
2023/04/27 00:55:11;;;;;;;7.97;2.75;;;4.00;99.90;;;;;;7403583;19;19922;-75
2023/04/27 00:57:40;;;;;;;5.53;2.42;;;4.40;99.90;;;;;;7403522;19;19933;-75
2023/04/27 01:00:12;;;;;;;5.90;2.45;;;3.90;99.90;;;;;;7404612;19;19915;-75
2023/04/27 01:02:44;;;;;;;;;;;3.70;99.90;;;;;;7404970;19;19935;-75
2023/04/27 01:05:13;;;;;;;3.90;2.40;;;3.90;99.90;;;;;;7403316;19;19974;-75
2023/04/27 01:07:43;;;;;;;3.72;2.50;;;4.00;99.90;;;;;;7405789;19;20447;-75
2023/04/27 01:10:12;;;;;;;4.45;2.30;;;4.30;99.90;;;;;;7403700;19;19918;-75
2023/04/27 01:12:41;;;;;;;5.70;2.45;;;3.60;99.90;;;;;;7405403;19;19927;-75
2023/04/27 01:15:12;;;;;;;3.58;2.30;;;3.80;99.90;;;;;;7403880;19;20272;-75
2023/04/27 01:17:43;;;;;;;3.47;2.42;;;3.40;99.90;;;;;;7405262;19;19922;-74
2023/04/27 01:20:13;;;;;;;6.88;2.70;;;3.90;99.90;;;;;;7403080;19;19921;-75
2023/04/27 01:22:42;;;;;;;10.68;3.35;;;3.70;99.90;;;;;;7402601;19;19950;-75
2023/04/27 01:25:13;;;;;;;6.60;2.75;;;4.30;99.90;;;;;;7404675;19;19921;-75
2023/04/27 01:27:42;;;;;;;5.97;2.40;;;2.90;99.90;;;;;;7405089;19;20287;-75
2023/04/27 01:30:11;;;;;;;3.97;2.40;;;3.90;99.90;;;;;;7405775;19;19929;-74
2023/04/27 01:32:40;;;;;;;4.78;2.60;;;3.90;99.90;;;;;;7404460;19;19918;-75
2023/04/27 01:35:10;;;;;;;5.15;2.58;;;4.60;99.90;;;;;;7403991;19;19923;-75
2023/04/27 01:37:39;;;;;;;4.35;2.53;;;4.10;99.90;;;;;;7405149;19;20340;-75
2023/04/27 01:40:10;;;;;;;5.03;2.35;;;4.50;99.90;;;;;;7403521;19;19933;-75
2023/04/27 01:42:41;;;;;;;3.88;2.20;;;4.70;99.90;;;;;;7402841;19;19970;-76
2023/04/27 01:45:12;;;;;;;6.13;3.00;;;4.00;99.90;;;;;;7404668;19;19929;-75
2023/04/27 01:47:41;;;;;;;5.53;2.35;;;4.10;99.90;;;;;;7402146;19;19928;-75
2023/04/27 01:50:11;;;;;;;5.65;2.20;;;3.70;99.90;;;;;;7403267;19;19922;-75
2023/04/27 01:52:39;;;;;;;5.03;2.40;;;3.50;99.90;;;;;;7404681;19;19937;-75
2023/04/27 01:55:10;;;;;;;3.08;2.03;;;4.90;99.90;;;;;;7404230;19;19927;-75
2023/04/27 01:57:41;;;;;;;6.35;2.45;;;5.00;99.90;;;;;;7404117;19;19919;-75
2023/04/27 02:00:12;;;;;;;3.20;2.17;;;4.60;99.90;;;;;;7404523;19;19922;-75
2023/04/27 02:02:41;;;;;;;6.47;3.05;;;4.20;99.90;;;;;;7403444;19;20587;-75
2023/04/27 02:05:10;;;;;;;3.20;2.13;;;3.90;99.90;;;;;;7402901;19;19914;-74
2023/04/27 02:07:39;;;;;;;4.20;2.33;;;4.30;99.90;;;;;;7404704;19;19950;-76
2023/04/27 02:10:10;;;;;;;4.20;2.13;;;3.30;99.90;;;;;;7403299;19;19925;-75
2023/04/27 02:12:41;;;;;;;3.90;2.08;;;4.90;99.90;;;;;;7401807;19;20289;-75
2023/04/27 02:15:11;;;;;;;5.50;2.35;;;3.20;99.90;;;;;;7401898;19;19928;-75
2023/04/27 02:17:40;;;;;;;4.13;2.10;;;4.90;99.90;;;;;;7401964;19;19918;-75
2023/04/27 02:20:11;;;;;;;9.57;2.50;;;3.60;99.90;;;;;;7402609;19;20349;-75
2023/04/27 02:22:43;;;;;;;4.00;2.47;;;3.20;99.90;;;;;;7400493;19;19958;-75
2023/04/27 02:25:13;;;;;;;7.18;2.80;;;4.10;99.90;;;;;;7404482;19;20269;-75
2023/04/27 02:27:45;;;;;;;4.03;2.80;;;4.80;99.90;;;;;;7401920;19;19922;-75
2023/04/27 02:30:15;;;;;;;7.25;2.80;;;4.20;99.90;;;;;;7400971;19;20026;-75
2023/04/27 02:32:45;;;;;;;3.63;2.42;;;3.60;99.90;;;;;;7401027;19;19917;-75
2023/04/27 02:35:14;;;;;;;3.90;2.70;;;4.20;99.90;;;;;;7401519;19;19911;-76
2023/04/27 02:37:43;;;;;;;3.78;2.20;;;4.10;99.90;;;;;;7401211;19;19922;-75
2023/04/27 02:40:13;;;;;;;3.67;2.15;;;4.70;99.90;;;;;;7402114;19;19926;-75
2023/04/27 02:42:44;;;;;;;3.63;2.33;;;3.80;99.90;;;;;;7401477;19;19931;-75
2023/04/27 02:45:14;;;;;;;4.82;2.05;;;4.00;99.90;;;;;;7399818;19;19922;-75
2023/04/27 02:47:42;;;;;;;5.00;2.20;;;3.50;99.90;;;;;;7401753;19;20368;-75
2023/04/27 02:50:12;;;;;;;4.90;2.78;;;4.60;99.90;;;;;;7403254;19;19938;-75
2023/04/27 02:52:41;;;;;;;3.58;2.60;;;3.90;99.90;;;;;;7401495;19;20015;-74
2023/04/27 02:55:11;;;;;;;3.63;2.30;;;3.40;99.90;;;;;;7401531;19;19914;-74
2023/04/27 02:57:40;;;;;;;7.20;2.30;;;3.80;99.90;;;;;;7401982;19;19918;-75
2023/04/27 03:00:14;;;;;;;3.95;2.25;;;3.40;99.90;;;;;;7399363;19;20432;-74
2023/04/27 03:02:43;;;;;;;5.00;2.40;;;3.30;99.90;;;;;;7400631;19;19926;-75
2023/04/27 03:05:12;;;;;;;3.83;2.30;;;2.90;99.90;;;;;;7401297;19;19930;-74
2023/04/27 03:07:41;;;;;;;5.70;3.33;;;3.80;99.90;;;;;;7401208;19;19946;-74
2023/04/27 03:10:11;;;;;;;4.22;1.88;;;3.00;99.90;;;;;;7401289;19;20256;-74
2023/04/27 03:12:40;;;;;;;5.65;2.00;;;3.60;99.90;;;;;;7401590;19;19930;-74
2023/04/27 03:15:13;;;;;;;4.97;2.35;;;3.70;99.90;;;;;;7400684;19;20261;-74
2023/04/27 03:17:41;;;;;;;5.75;2.45;;;3.60;99.90;;;;;;7400439;19;19925;-74
2023/04/27 03:20:12;;;;;;;2.90;1.95;;;4.20;99.90;;;;;;7400899;19;20419;-74
2023/04/27 03:22:41;;;;;;;5.43;2.17;;;4.00;99.90;;;;;;7401445;19;20337;-74
2023/04/27 03:25:10;;;;;;;8.00;2.50;;;4.30;99.90;;;;;;7399060;19;19921;-75
2023/04/27 03:27:39;;;;;;;3.88;2.53;;;3.80;99.90;;;;;;7398979;19;19923;-74
2023/04/27 03:30:09;;;;;;;2.88;2.03;;;3.90;99.90;;;;;;7400739;19;21789;-74
2023/04/27 03:32:41;;;;;;;4.75;1.80;;;3.50;99.90;;;;;;7400565;19;19981;-74
2023/04/27 03:35:11;;;;;;;3.33;2.03;;;4.20;99.90;;;;;;7402001;19;20323;-75
2023/04/27 03:37:40;;;;;;;3.60;2.17;;;4.20;99.90;;;;;;7401863;19;19969;-74
2023/04/27 03:40:10;;;;;;;4.45;2.15;;;3.60;99.90;;;;;;7400401;19;19914;-74
2023/04/27 03:42:39;;;;;;;3.53;2.00;;;3.20;99.90;;;;;;7396778;19;19922;-75
2023/04/27 03:45:11;;;;;;;3.13;2.13;;;2.60;99.90;;;;;;7400952;19;19931;-74
2023/04/27 03:47:42;;;;;;;3.60;1.90;;;3.00;99.90;;;;;;7400462;19;20264;-74
2023/04/27 03:50:12;;;;;;;5.57;2.53;;;3.60;99.90;;;;;;7399469;19;19927;-74
2023/04/27 03:52:40;;;;;;;4.38;1.90;;;3.50;99.90;;;;;;7400973;19;19929;-73
2023/04/27 03:55:10;;;;;;;3.70;2.13;;;2.40;99.90;;;;;;7399198;19;19918;-75
2023/04/27 03:57:39;;;;;;;5.05;1.90;;;3.30;99.90;;;;;;7399170;19;20523;-75
2023/04/27 04:00:11;;;;;;;5.60;2.65;;;3.90;99.90;;;;;;7398659;19;19933;-75
2023/04/27 04:02:43;;;;;;;4.47;2.30;;;3.20;99.90;;;;;;7400113;19;19918;-75
2023/04/27 04:05:13;;;;;;;5.18;2.38;;;3.30;99.90;;;;;;7397826;19;19922;-74
2023/04/27 04:07:42;;;;;;;4.85;2.50;;;3.60;99.90;;;;;;7400553;19;19935;-73
2023/04/27 04:10:13;;;;;;;5.90;3.17;;;2.50;99.90;;;;;;7398397;19;19919;-74
2023/04/27 04:12:42;;;;;;;3.90;2.33;;;2.00;99.90;;;;;;7398914;19;19923;-75
2023/04/27 04:15:11;;;;;;;5.32;2.28;;;2.50;99.90;;;;;;7400399;19;20275;-75
2023/04/27 04:17:42;;;;;;;3.28;2.30;;;2.50;99.90;;;;;;7401056;19;19929;-75
2023/04/27 04:20:13;;;;;;;6.18;3.90;;;2.40;99.90;;;;;;7399598;19;19922;-74
2023/04/27 04:22:42;;;;;;;11.80;3.17;;;2.60;99.90;;;;;;7399624;19;20368;-74
2023/04/27 04:25:11;;;;;;;4.47;2.85;;;2.90;99.90;;;;;;7397365;19;19922;-74
2023/04/27 04:27:40;;;;;;;6.97;3.35;;;2.30;99.90;;;;;;7398799;19;20333;-75
2023/04/27 04:30:10;;;;;;;6.47;3.25;;;1.70;99.90;;;;;;7398500;19;19928;-75
2023/04/27 04:32:40;;;;;;;9.98;3.22;;;;;;;;;;7399393;19;19926;-74
2023/04/27 04:35:13;;;;;;;4.78;3.03;;;1.90;99.90;;;;;;7399807;19;19926;-74
2023/04/27 04:37:42;;;;;;;7.85;3.20;;;3.50;99.90;;;;;;7398997;19;19931;-74
2023/04/27 04:40:12;;;;;;;4.13;2.78;;;2.40;99.90;;;;;;7399293;19;19919;-74
2023/04/27 04:42:40;;;;;;;6.47;3.10;;;2.40;99.90;;;;;;7400410;19;19971;-75
2023/04/27 04:45:10;;;;;;;5.97;3.63;;;2.60;99.90;;;;;;7397329;19;19918;-76
2023/04/27 04:47:40;;;;;;;5.25;3.35;;;2.70;99.90;;;;;;7398386;19;20459;-74
2023/04/27 04:50:12;;;;;;;5.90;3.47;;;3.00;99.90;;;;;;7399341;19;19926;-73
2023/04/27 04:52:41;;;;;;;8.57;3.95;;;3.50;99.90;;;;;;7398351;19;19933;-74
2023/04/27 04:55:10;;;;;;;7.90;3.55;;;3.30;99.90;;;;;;7403454;19;19929;-74
2023/04/27 04:57:39;;;;;;;7.78;3.95;;;2.70;99.90;;;;;;7406376;19;19918;-74
2023/04/27 05:00:11;;;;;;;8.15;3.85;;;2.90;99.90;;;;;;7402385;19;19919;-75
2023/04/27 05:02:40;;;;;;;;;;;3.00;99.90;;;;;;7407913;19;19933;-74
2023/04/27 05:05:12;;;;;;;9.88;3.63;;;3.20;99.90;;;;;;7403944;19;19930;-74
2023/04/27 05:07:41;;;;;;;6.55;4.00;;;3.50;99.90;;;;;;7405403;19;19919;-74
2023/04/27 05:10:10;;;;;;;7.40;3.55;;;3.50;99.90;;;;;;7406244;19;19934;-74
2023/04/27 05:12:40;;;;;;;6.90;3.90;;;2.10;99.90;;;;;;7405765;19;19957;-74
2023/04/27 05:15:10;;;;;;;8.63;4.00;;;2.90;99.90;;;;;;7404956;19;19923;-74
2023/04/27 05:17:38;;;;;;;9.63;4.32;;;2.20;99.90;;;;;;7404141;19;19932;-74
2023/04/27 05:20:11;;;;;;;8.23;4.53;;;2.50;99.90;;;;;;7404739;19;19918;-76
2023/04/27 05:22:40;;;;;;;8.60;4.18;;;2.30;99.90;;;;;;7404104;19;19928;-74
2023/04/27 05:25:10;;;;;;;6.05;3.63;;;3.10;99.90;;;;;;7402111;19;20257;-74
2023/04/27 05:27:39;;;;;;;6.20;3.55;;;2.10;99.90;;;;;;7404435;19;19946;-74
2023/04/27 05:30:10;;;;;;;7.18;4.00;;;3.20;99.90;;;;;;7404320;19;20347;-75
2023/04/27 05:32:39;;;;;;;7.20;3.72;;;3.10;99.90;;;;;;7405593;19;19921;-75
2023/04/27 05:35:11;;;;;;;12.60;4.22;;;2.90;99.90;;;;;;7403470;19;19998;-74
2023/04/27 05:37:40;;;;;;;7.05;3.53;;;2.40;99.90;;;;;;7401409;19;19952;-74
2023/04/27 05:40:11;;;;;;;8.50;4.05;;;3.10;99.90;;;;;;7404638;19;19929;-75
2023/04/27 05:42:40;;;;;;;7.20;3.00;;;2.20;99.90;;;;;;7402257;19;19923;-75
2023/04/27 05:45:10;;;;;;;6.40;3.50;;;2.90;99.90;;;;;;7400619;19;19925;-74
2023/04/27 05:47:39;;;;;;;7.10;3.50;;;2.30;99.90;;;;;;7399743;19;19922;-75
2023/04/27 05:50:12;;;;;;;5.97;3.58;;;2.90;99.90;;;;;;7404923;19;20310;-74
2023/04/27 05:52:41;;;;;;;5.28;3.47;;;3.00;99.90;;;;;;7403334;19;20392;-74
2023/04/27 05:55:10;;;;;;;6.30;3.60;;;3.50;99.90;;;;;;7402669;19;19922;-74
2023/04/27 05:57:40;;;;;;;9.23;4.35;;;3.30;99.90;;;;;;7403747;19;19945;-75
2023/04/27 06:00:11;;;;;;;5.50;3.08;;;4.10;99.90;;;;;;7403971;19;20347;-75
2023/04/27 06:02:40;;;;;;;7.32;3.75;;;3.00;99.90;;;;;;7404573;19;19923;-74
2023/04/27 06:05:12;;;;;;;8.88;3.83;;;2.70;99.90;;;;;;7400934;19;19918;-73
2023/04/27 06:07:42;;;;;;;7.25;3.67;;;2.90;99.90;;;;;;7402335;19;19918;-75
2023/04/27 06:10:12;;;;;;;11.32;3.83;;;3.30;99.90;;;;;;7403985;19;19943;-74
2023/04/27 06:12:42;;;;;;;4.55;2.90;;;3.90;99.90;;;;;;7403067;19;20627;-74
2023/04/27 06:15:12;;;;;;;7.90;3.70;;;4.70;99.90;;;;;;7403038;19;19919;-75
2023/04/27 06:17:42;;;;;;;10.38;4.65;;;3.80;99.90;;;;;;7403750;19;19923;-74
2023/04/27 06:20:14;;;;;;;6.40;2.95;;;4.40;99.90;;;;;;7402096;19;19921;-74
2023/04/27 06:22:45;;;;;;;6.47;3.65;;;3.20;99.90;;;;;;7401854;19;19919;-74
2023/04/27 06:25:14;;;;;;;4.22;3.00;;;3.90;99.90;;;;;;7400645;19;19923;-74
2023/04/27 06:27:43;;;;;;;6.57;3.10;;;3.70;99.90;;;;;;7403431;19;19927;-75
2023/04/27 06:30:13;;;;;;;4.38;2.90;;;4.80;99.90;;;;;;7400771;19;19936;-75
2023/04/27 06:32:42;;;;;;;4.75;3.60;;;3.10;99.90;;;;;;7400701;19;19919;-75
2023/04/27 06:35:15;;;;;;;9.25;4.80;;;4.60;99.90;;;;;;7403609;19;20336;-74
2023/04/27 06:37:44;;;;;;;5.90;3.25;;;4.70;99.90;;;;;;7400917;19;19994;-75
2023/04/27 06:40:13;;;;;;;4.88;2.60;;;4.30;99.90;;;;;;7403006;19;20366;-74
2023/04/27 06:42:42;;;;;;;11.05;4.35;;;5.10;99.90;;;;;;7400227;19;19922;-74
2023/04/27 06:45:12;;;;;;;6.45;3.13;;;3.80;99.90;;;;;;7402358;19;19982;-75
2023/04/27 06:47:41;;;;;;;6.38;3.53;;;4.50;99.90;;;;;;7402884;19;20323;-74
2023/04/27 06:50:10;;;;;;;5.07;3.30;;;4.30;99.90;;;;;;7401826;19;19922;-75
2023/04/27 06:52:42;;;;;;;6.88;3.80;;;4.50;99.90;;;;;;7401447;19;19926;-74
2023/04/27 06:55:11;;;;;;;9.52;4.05;;;5.50;99.90;;;;;;7401786;19;19922;-74
2023/04/27 06:57:40;;;;;;;7.05;3.95;;;4.60;99.90;;;;;;7402698;19;19923;-74
2023/04/27 07:00:12;;;;;;;8.18;3.88;;;4.70;99.90;;;;;;7401277;19;19928;-74
2023/04/27 07:02:41;;;;;;;5.45;3.78;;;4.60;99.90;;;;;;7404032;19;19930;-74
2023/04/27 07:05:10;;;;;;;4.28;3.10;;;5.60;99.90;;;;;;7400639;19;20249;-75
2023/04/27 07:07:41;;;;;;;16.52;3.70;;;4.90;99.90;;;;;;7401703;19;19970;-74
2023/04/27 07:10:11;;;;;;;6.93;3.22;;;4.90;99.90;;;;;;7399826;19;19942;-75
2023/04/27 07:12:41;;;;;;;6.10;3.10;;;5.00;99.90;;;;;;7400380;19;19922;-74
2023/04/27 07:15:11;;;;;;;7.28;3.60;;;4.90;99.90;;;;;;7399202;19;19932;-75
2023/04/27 07:17:40;;;;;;;5.22;3.47;;;5.00;99.90;;;;;;7397711;19;20362;-75
2023/04/27 07:20:12;;;;;;;4.30;2.40;;;5.10;99.90;;;;;;7400255;19;19922;-74
2023/04/27 07:22:43;;;;;;;4.90;3.00;;;5.00;99.90;;;;;;7401203;19;20261;-74
2023/04/27 07:25:12;;;;;;;7.70;2.92;;;5.40;99.90;;;;;;7400691;19;19931;-74
2023/04/27 07:27:41;;;;;;;4.43;3.03;;;5.40;99.90;;;;;;7401621;19;19925;-75
2023/04/27 07:30:12;;;;;;;6.90;3.55;;;5.40;99.90;;;;;;7400892;19;19955;-75
2023/04/27 07:32:42;;;;;;;5.70;2.80;;;5.50;99.90;;;;;;7401765;19;20021;-75
2023/04/27 07:35:12;;;;;;;4.20;2.42;;;5.80;99.90;;;;;;7399238;19;20534;-76
2023/04/27 07:37:44;;;;;;;5.35;2.40;;;5.50;99.90;;;;;;7400440;19;20344;-75
2023/04/27 07:40:16;;;;;;;7.07;2.17;;;5.60;99.90;;;;;;7400256;19;19923;-76
2023/04/27 07:42:45;;;;;;;3.00;2.10;;;5.70;99.90;;;;;;7400267;19;20945;-75
2023/04/27 07:45:14;;;;;;;5.43;2.67;;;5.60;99.90;;;;;;7399528;19;19928;-75
2023/04/27 07:47:43;;;;;;;4.05;1.70;;;5.80;99.90;;;;;;7399785;19;19929;-75
2023/04/27 07:50:17;;;;;;;6.80;2.40;;;5.90;99.90;;;;;;7401441;19;19929;-75
2023/04/27 07:52:49;;;;;;;5.55;2.78;;;5.90;99.90;;;;;;7399905;19;19922;-76
2023/04/27 07:55:17;;;;;;;5.55;2.63;;;4.30;99.90;;;;;;7400222;19;19929;-75
2023/04/27 07:57:46;;;;;;;6.20;3.20;;;6.40;99.90;;;;;;7399656;19;19919;-75
2023/04/27 08:00:16;;;;;;;3.97;2.35;;;6.00;99.90;;;;;;7398339;19;19919;-76
2023/04/27 08:02:45;;;;;;;4.93;2.67;;;6.00;99.90;;;;;;7401132;19;19930;-76
2023/04/27 08:05:15;;;;;;;7.15;2.85;;;6.10;99.90;;;;;;7400702;19;19942;-76
2023/04/27 08:07:43;;;;;;;5.63;2.53;;;6.10;99.90;;;;;;7399989;19;19944;-76
2023/04/27 08:10:16;;;;;;;6.18;3.03;;;6.20;99.90;;;;;;7399009;19;19923;-76
2023/04/27 08:12:45;;;;;;;3.90;2.80;;;6.30;99.90;;;;;;7400092;19;19986;-75
2023/04/27 08:15:15;;;;;;;3.78;2.75;;;6.50;99.90;;;;;;7400894;19;19937;-75
2023/04/27 08:17:44;;;;;;;3.88;2.28;;;6.30;99.90;;;;;;7399682;19;19941;-75
2023/04/27 08:20:13;;;;;;;3.67;2.13;;;6.20;99.90;;;;;;7399589;19;19923;-77
2023/04/27 08:22:43;;;;;;;3.90;2.45;;;6.40;99.90;;;;;;7397121;19;20362;-76
2023/04/27 08:25:15;;;;;;;4.18;2.45;;;7.30;99.90;;;;;;7393784;19;19925;-79
2023/04/27 08:27:44;;;;;;;4.88;2.88;;;6.70;99.90;;;;;;7397375;19;19933;-79
2023/04/27 08:30:14;;;;;;;3.60;2.30;;;6.50;99.90;;;;;;7404730;19;19927;-79
2023/04/27 08:32:42;;;;;;;5.95;2.90;;;6.70;99.90;;;;;;7406073;19;19919;-79
2023/04/27 08:35:12;;;;;;;4.43;2.45;;;6.60;99.90;;;;;;7405742;19;19926;-77
2023/04/27 08:37:41;;;;;;;5.10;2.30;;;6.70;99.90;;;;;;7379025;19;20340;-77
2023/04/27 08:40:11;;;;;;;4.82;2.60;;;6.70;99.90;;;;;;7405858;19;19922;-77
2023/04/27 08:42:56;;;;;;;3.70;2.47;;;6.80;99.90;;;;;;7405111;19;20022;-77
2023/04/27 08:45:26;;;;;;;7.18;2.35;;;6.80;99.90;;;;;;7406414;19;20041;-77
2023/04/27 08:47:55;;;;;;;6.25;2.65;;;7.00;99.90;;;;;;7405040;19;20378;-77
2023/04/27 08:50:25;;;;;;;6.80;3.35;;;7.30;99.90;;;;;;7403854;19;20337;-77
2023/04/27 08:52:54;;;;;;;3.47;2.25;;;7.00;99.90;;;;;;7404410;19;19947;-77
2023/04/27 08:55:23;;;;;;;3.30;2.00;;;7.60;99.90;;;;;;7405194;19;19923;-78
2023/04/27 08:58:00;;;;;;;4.45;2.70;;;7.10;99.90;;;;;;7405539;19;19922;-78
2023/04/27 09:00:39;;;;;;;5.75;2.65;;;7.20;99.90;;;;;;7399648;19;19923;-78
2023/04/27 09:03:08;;;;;;;4.15;2.83;;;7.50;99.90;;;;;;7400488;19;19919;-78
2023/04/27 09:05:37;;;;;;;3.85;2.70;;;7.40;99.90;;;;;;7399366;19;19931;-78
2023/04/27 09:08:09;;;;;;;5.30;2.78;;;7.30;99.90;;;;;;7401880;19;20367;-77
2023/04/27 09:10:48;;;;;;;7.15;2.80;;;7.50;99.90;;;;;;7401460;19;19919;-78
2023/04/27 09:13:19;;;;;;;6.45;3.00;;;7.60;99.90;;;;;;7398533;19;20249;-78
2023/04/27 09:15:51;;;;;;;6.20;2.80;;;7.50;99.90;;;;;;7400689;19;19954;-77
2023/04/27 09:18:21;;;;;;;3.83;2.00;;;7.70;99.90;;;;;;7400783;19;20328;-77
2023/04/27 09:20:51;;;;;;;4.18;2.33;;;7.80;99.90;;;;;;7400406;19;19945;-77
2023/04/27 09:23:30;;;;;;;4.00;2.15;;;7.90;99.90;;;;;;7400989;19;19919;-78
2023/04/27 09:26:01;;;;;;;5.90;2.42;;;8.00;99.90;;;;;;7401288;19;19941;-78
2023/04/27 09:28:33;;;;;;;6.90;2.78;;;8.60;99.90;;;;;;7400421;19;19919;-77
2023/04/27 09:31:04;;;;;;;4.50;3.22;;;8.00;99.90;;;;;;7400925;19;20018;-78
2023/04/27 09:33:35;;;;;;;4.32;2.92;;;8.30;99.90;;;;;;7399022;19;20374;-78
2023/04/27 09:36:06;;;;;;;4.50;2.65;;;9.00;99.90;;;;;;7400338;19;19926;-78
2023/04/27 09:38:35;;;;;;;3.75;2.53;;;8.50;99.90;;;;;;7399166;19;19929;-78
2023/04/27 09:41:05;;;;;;;4.25;2.58;;;8.60;99.90;;;;;;7399749;19;19927;-78
2023/04/27 09:43:37;;;;;;;3.15;2.05;;;8.60;99.90;;;;;;7400743;19;19929;-78
2023/04/27 09:46:06;;;;;;;4.80;2.80;;;8.50;99.90;;;;;;7399458;19;19918;-79
2023/04/27 09:48:35;;;;;;;4.30;2.40;;;8.60;99.90;;;;;;7396516;19;19918;-78
2023/04/27 09:51:04;;;;;;;4.70;2.50;;;8.70;99.90;;;;;;7401207;19;19927;-78
2023/04/27 09:53:38;;;;;;;7.28;3.40;;;8.90;99.90;;;;;;7398880;19;19926;-78
2023/04/27 09:56:27;;;;;;;4.60;2.75;;;8.90;99.90;;;;;;7400077;19;19926;-78
2023/04/27 09:59:27;;;;;;;4.10;2.80;;;9.10;99.90;;;;;;7254921;19;2800692;-78
2023/04/27 10:02:00;;;;;;;5.60;2.88;;;9.00;99.90;;;;;;7402834;19;19937;-78
2023/04/27 10:04:47;;;;;;;4.13;2.40;;;9.30;99.90;;;;;;7402118;19;20445;-78
2023/04/27 10:07:16;;;;;;;5.22;2.72;;;9.30;99.90;;;;;;7399854;19;19941;-78
2023/04/27 10:09:48;;;;;;;4.55;2.85;;;9.50;99.90;;;;;;7403361;19;19933;-78
2023/04/27 10:12:19;;;;;;;3.95;2.85;;;9.40;99.90;;;;;;7402632;19;19930;-77
2023/04/27 10:14:56;;;;;;;6.10;3.05;;;9.20;99.90;;;;;;7402105;19;19922;-78
2023/04/27 10:17:30;;;;;;;7.63;3.10;;;9.40;99.90;;;;;;7405140;19;20671;-78
2023/04/27 10:20:01;;;;;;;4.78;3.20;;;9.40;99.90;;;;;;7405644;19;20357;-78
2023/04/27 10:22:40;;;;;;;4.88;2.90;;;9.60;99.90;;;;;;7403902;19;19989;-78
2023/04/27 10:25:20;;;;;;;4.35;2.65;;;9.60;99.90;;;;;;7400260;19;20443;-78
2023/04/27 10:27:55;;;;;;;4.95;2.70;;;9.60;99.90;;;;;;7401241;19;19933;-78
2023/04/27 10:30:28;;;;;;;4.70;3.30;;;9.50;99.90;;;;;;7400391;19;19919;-78
2023/04/27 10:32:58;;;;;;;6.13;2.67;;;9.50;99.90;;;;;;7401109;19;19943;-78
2023/04/27 10:35:35;;;;;;;6.60;3.55;;;9.60;99.90;;;;;;7402443;19;19944;-78
2023/04/27 10:38:08;;;;;;;6.50;3.70;;;9.60;99.90;;;;;;7399990;19;19919;-78
2023/04/27 10:40:38;;;;;;;5.38;2.67;;;9.60;99.90;;;;;;7402005;19;19945;-78
2023/04/27 10:43:11;;;;;;;10.40;4.60;;;9.50;99.90;;;;;;7401854;19;19918;-78
2023/04/27 10:45:44;;;;;;;4.72;3.85;;;9.50;99.90;;;;;;7400509;19;19926;-78
2023/04/27 10:48:16;;;;;;;5.43;2.63;;;9.50;99.90;;;;;;7401750;19;19946;-79
2023/04/27 10:50:46;;;;;;;5.50;3.22;;;9.50;99.90;;;;;;7404585;19;20360;-79
2023/04/27 10:53:16;;;;;;;7.50;3.35;;;9.50;99.90;;;;;;7401830;19;19914;-78
2023/04/27 10:55:45;;;;;;;4.15;3.20;;;9.50;99.90;;;;;;7401172;19;19915;-78
2023/04/27 10:58:14;;;;;;;6.07;3.25;;;9.60;99.90;;;;;;7400343;19;20608;-78
2023/04/27 11:00:46;;;;;;;6.03;2.92;;;9.70;99.90;;;;;;7399499;19;19934;-79
2023/04/27 11:03:18;;;;;;;5.20;3.08;;;9.60;99.90;;;;;;7400682;19;19978;-79
2023/04/27 11:05:48;;;;;;;9.30;3.67;;;9.60;99.90;;;;;;7400480;19;19926;-78
2023/04/27 11:08:19;;;;;;;6.72;3.45;;;9.50;99.90;;;;;;7399382;19;19929;-78
2023/04/27 11:10:50;;;;;;;6.50;2.80;;;9.50;99.90;;;;;;7402087;19;20443;-78
2023/04/27 11:13:21;;;;;;;7.72;2.78;;;9.50;99.90;;;;;;7401680;19;19918;-78
2023/04/27 11:15:56;;;;;;;7.05;3.42;;;9.40;99.90;;;;;;7401533;19;19925;-78
2023/04/27 11:18:27;;;;;;;4.13;2.90;;;9.50;99.90;;;;;;7400692;19;20019;-79
2023/04/27 11:21:07;;;;;;;5.40;3.05;;;9.40;99.90;;;;;;7402065;19;19927;-78
2023/04/27 11:23:38;;;;;;;4.72;2.90;;;9.30;99.90;;;;;;7399512;19;19914;-80
2023/04/27 11:26:15;;;;;;;5.43;2.88;;;9.40;99.90;;;;;;7401405;19;19990;-80
2023/04/27 11:28:44;;;;;;;6.25;3.22;;;9.50;99.90;;;;;;7400304;19;19918;-78
2023/04/27 11:31:16;;;;;;;7.72;2.97;;;9.40;99.90;;;;;;7399142;19;19929;-78
2023/04/27 11:33:50;;;;;;;9.15;4.78;;;9.60;99.90;;;;;;7398936;19;19922;-79
2023/04/27 11:36:20;;;;;;;4.80;2.75;;;9.50;99.90;;;;;;7400596;19;19922;-77
2023/04/27 11:38:49;;;;;;;6.05;3.15;;;9.60;99.90;;;;;;7397632;19;19923;-79
2023/04/27 11:41:18;;;;;;;14.65;11.38;;;9.70;99.90;;;;;;7400511;19;19929;-81
2023/04/27 11:43:48;;;;;;;6.75;6.10;;;9.60;99.90;;;;;;7308504;19;20888;-78
2023/04/27 11:46:21;;;;;;;4.40;3.42;;;9.80;99.90;;;;;;7399996;19;19923;-81
2023/04/27 11:48:51;;;;;;;12.23;7.07;;;10.00;99.90;;;;;;7400443;19;19994;-79
2023/04/27 11:51:20;;;;;;;8.85;6.53;;;10.00;99.90;;;;;;7401484;19;19926;-80
2023/04/27 11:53:51;;;;;;;13.48;8.48;;;10.10;99.90;;;;;;7397844;19;19941;-81
2023/04/27 11:56:20;;;;;;;10.82;5.00;;;9.80;99.90;;;;;;7402468;19;19926;-80
2023/04/27 11:58:49;;;;;;;5.00;2.88;;;10.10;99.90;;;;;;7397310;19;20328;-78
2023/04/27 12:01:20;;;;;;;5.43;2.97;;;10.20;99.90;;;;;;7398422;19;19933;-80
2023/04/27 12:03:49;;;;;;;;;;;10.30;99.90;;;;;;7405843;19;20300;-80
2023/04/27 12:06:27;;;;;;;5.95;4.88;;;10.40;99.90;;;;;;7406824;19;21031;-80
2023/04/27 12:08:57;;;;;;;8.85;5.90;;;10.50;99.90;;;;;;7404916;19;20446;-81
2023/04/27 12:11:27;;;;;;;12.55;6.97;;;10.50;99.90;;;;;;7408455;19;19926;-81
2023/04/27 12:13:56;;;;;;;5.95;3.05;;;10.40;99.90;;;;;;7407117;19;19918;-80
2023/04/27 12:16:28;;;;;;;5.70;3.13;;;10.60;99.90;;;;;;7403171;19;19957;-80
2023/04/27 12:18:58;;;;;;;6.55;3.05;;;10.70;99.90;;;;;;7405489;19;20403;-77
2023/04/27 12:21:27;;;;;;;6.75;3.00;;;11.00;99.90;;;;;;7406857;19;19926;-78
2023/04/27 12:23:56;;;;;;;8.80;4.22;;;11.10;99.90;;;;;;7403706;19;20419;-77
2023/04/27 12:26:25;;;;;;;9.73;3.88;;;11.20;99.90;;;;;;7405016;19;19954;-78
2023/04/27 12:28:55;;;;;;;8.38;3.08;;;11.40;99.90;;;;;;7407617;19;19938;-80
2023/04/27 12:31:24;;;;;;;4.85;3.97;;;11.20;99.90;;;;;;7407584;19;19922;-81
2023/04/27 12:33:56;;;;;;;5.50;2.97;;;11.30;99.90;;;;;;7403463;19;19957;-77
2023/04/27 12:36:26;;;;;;;5.80;3.17;;;11.30;99.90;;;;;;7404671;19;19961;-78
2023/04/27 12:38:55;;;;;;;7.20;3.53;;;11.30;99.90;;;;;;7405979;19;19918;-75
2023/04/27 12:41:24;;;;;;;8.27;3.67;;;11.30;99.90;;;;;;7406466;19;19952;-77
2023/04/27 12:43:53;;;;;;;6.65;3.20;;;11.60;99.90;;;;;;7405575;19;19934;-77
2023/04/27 12:46:22;;;;;;;5.53;3.50;;;11.60;99.90;;;;;;7404823;19;19919;-76
2023/04/27 12:48:50;;;;;;;5.65;3.15;;;11.70;99.90;;;;;;7405138;19;19929;-74
2023/04/27 12:51:22;;;;;;;3.85;3.45;;;11.90;99.90;;;;;;7404945;19;20037;-76
2023/04/27 12:53:51;;;;;;;4.40;2.78;;;11.90;99.90;;;;;;7404105;19;19918;-77
2023/04/27 12:56:20;;;;;;;7.10;3.17;;;11.80;99.90;;;;;;7405540;19;19921;-78
2023/04/27 12:58:49;;;;;;;7.93;3.97;;;11.80;99.90;;;;;;7406432;19;19926;-78
2023/04/27 13:01:18;;;;;;;6.30;3.75;;;11.90;99.90;;;;;;7404584;19;20563;-80
2023/04/27 13:03:49;;;;;;;6.40;3.38;;;12.10;99.90;;;;;;7406684;19;19931;-78
2023/04/27 13:06:18;;;;;;;6.07;3.30;;;12.00;99.90;;;;;;7404846;19;19927;-79
2023/04/27 13:08:51;;;;;;;6.00;3.38;;;12.00;99.90;;;;;;7405534;19;19926;-79
2023/04/27 13:11:20;;;;;;;10.18;3.58;;;11.90;99.90;;;;;;7406605;19;19922;-79
2023/04/27 13:13:49;;;;;;;5.85;3.33;;;11.80;99.90;;;;;;7406176;19;20371;-79